sensor_id;sensor_type;location;lat;lon;timestamp;P1;durP1;ratioP1;P2;durP2;ratioP2
26484;SDS011;18083;50.560;7.262;2023-04-24T00:01:12;0.85;;;0.60;;
26484;SDS011;18083;50.560;7.262;2023-04-24T00:03:39;0.80;;;0.45;;
26484;SDS011;18083;50.560;7.262;2023-04-24T00:06:07;1.20;;;0.95;;
26484;SDS011;18083;50.560;7.262;2023-04-24T00:08:35;1.25;;;0.62;;
26484;SDS011;18083;50.560;7.262;2023-04-24T00:11:02;1.53;;;0.60;;
26484;SDS011;18083;50.560;7.262;2023-04-24T00:13:29;1.50;;;0.68;;
26484;SDS011;18083;50.560;7.262;2023-04-24T00:15:57;1.42;;;0.50;;
26484;SDS011;18083;50.560;7.262;2023-04-24T00:18:24;0.60;;;0.60;;
26484;SDS011;18083;50.560;7.262;2023-04-24T00:20:51;3.47;;;0.70;;
26484;SDS011;18083;50.560;7.262;2023-04-24T00:23:19;0.37;;;0.37;;
26484;SDS011;18083;50.560;7.262;2023-04-24T00:25:46;0.70;;;0.70;;
26484;SDS011;18083;50.560;7.262;2023-04-24T00:28:13;0.65;;;0.40;;
26484;SDS011;18083;50.560;7.262;2023-04-24T00:30:40;2.45;;;0.40;;
26484;SDS011;18083;50.560;7.262;2023-04-24T00:33:08;2.02;;;1.00;;
26484;SDS011;18083;50.560;7.262;2023-04-24T00:35:35;0.47;;;0.47;;
26484;SDS011;18083;50.560;7.262;2023-04-24T00:38:02;0.82;;;0.55;;
26484;SDS011;18083;50.560;7.262;2023-04-24T00:40:29;1.92;;;0.60;;
26484;SDS011;18083;50.560;7.262;2023-04-24T00:42:57;0.47;;;0.45;;
26484;SDS011;18083;50.560;7.262;2023-04-24T00:45:24;0.70;;;0.50;;
26484;SDS011;18083;50.560;7.262;2023-04-24T00:47:52;0.40;;;0.40;;
26484;SDS011;18083;50.560;7.262;2023-04-24T00:50:20;0.50;;;0.50;;
26484;SDS011;18083;50.560;7.262;2023-04-24T00:52:48;0.30;;;0.30;;
26484;SDS011;18083;50.560;7.262;2023-04-24T00:55:15;1.02;;;0.50;;
26484;SDS011;18083;50.560;7.262;2023-04-24T00:57:42;0.37;;;0.30;;
26484;SDS011;18083;50.560;7.262;2023-04-24T01:00:10;0.75;;;0.57;;
26484;SDS011;18083;50.560;7.262;2023-04-24T01:02:39;0.53;;;0.53;;
26484;SDS011;18083;50.560;7.262;2023-04-24T01:05:08;0.90;;;0.55;;
26484;SDS011;18083;50.560;7.262;2023-04-24T01:07:35;0.40;;;0.40;;
26484;SDS011;18083;50.560;7.262;2023-04-24T01:13:09;0.50;;;0.50;;
26484;SDS011;18083;50.560;7.262;2023-04-24T01:15:37;0.40;;;0.40;;
26484;SDS011;18083;50.560;7.262;2023-04-24T01:18:04;0.63;;;0.40;;
26484;SDS011;18083;50.560;7.262;2023-04-24T01:20:32;0.37;;;0.37;;
26484;SDS011;18083;50.560;7.262;2023-04-24T01:22:59;0.40;;;0.40;;
26484;SDS011;18083;50.560;7.262;2023-04-24T01:25:27;0.90;;;0.40;;
26484;SDS011;18083;50.560;7.262;2023-04-24T01:27:55;0.40;;;0.40;;
26484;SDS011;18083;50.560;7.262;2023-04-24T01:30:22;0.55;;;0.50;;
26484;SDS011;18083;50.560;7.262;2023-04-24T01:32:49;0.57;;;0.57;;
26484;SDS011;18083;50.560;7.262;2023-04-24T01:35:17;0.70;;;0.70;;
26484;SDS011;18083;50.560;7.262;2023-04-24T01:37:45;2.65;;;0.62;;
26484;SDS011;18083;50.560;7.262;2023-04-24T01:40:12;0.60;;;0.60;;
26484;SDS011;18083;50.560;7.262;2023-04-24T01:42:40;1.47;;;0.45;;
26484;SDS011;18083;50.560;7.262;2023-04-24T01:45:08;0.75;;;0.50;;
26484;SDS011;18083;50.560;7.262;2023-04-24T01:47:37;0.90;;;0.80;;
26484;SDS011;18083;50.560;7.262;2023-04-24T01:50:05;0.55;;;0.55;;
26484;SDS011;18083;50.560;7.262;2023-04-24T01:52:32;2.67;;;0.97;;
26484;SDS011;18083;50.560;7.262;2023-04-24T01:55:01;0.75;;;0.60;;
26484;SDS011;18083;50.560;7.262;2023-04-24T01:57:30;2.55;;;0.95;;
26484;SDS011;18083;50.560;7.262;2023-04-24T01:59:58;0.80;;;0.80;;
26484;SDS011;18083;50.560;7.262;2023-04-24T02:02:25;1.30;;;1.20;;
26484;SDS011;18083;50.560;7.262;2023-04-24T02:04:54;3.80;;;1.17;;
26484;SDS011;18083;50.560;7.262;2023-04-24T02:07:21;4.15;;;1.20;;
26484;SDS011;18083;50.560;7.262;2023-04-24T02:09:48;2.12;;;1.60;;
26484;SDS011;18083;50.560;7.262;2023-04-24T02:12:16;3.62;;;1.37;;
26484;SDS011;18083;50.560;7.262;2023-04-24T02:14:45;1.33;;;1.23;;
26484;SDS011;18083;50.560;7.262;2023-04-24T02:17:12;2.67;;;1.50;;
26484;SDS011;18083;50.560;7.262;2023-04-24T02:19:40;2.67;;;1.93;;
26484;SDS011;18083;50.560;7.262;2023-04-24T02:22:07;2.95;;;1.70;;
26484;SDS011;18083;50.560;7.262;2023-04-24T02:24:34;1.98;;;1.87;;
26484;SDS011;18083;50.560;7.262;2023-04-24T02:27:02;1.98;;;1.85;;
26484;SDS011;18083;50.560;7.262;2023-04-24T02:29:29;4.73;;;1.70;;
26484;SDS011;18083;50.560;7.262;2023-04-24T02:31:56;2.52;;;1.90;;
26484;SDS011;18083;50.560;7.262;2023-04-24T02:34:24;1.60;;;1.50;;
26484;SDS011;18083;50.560;7.262;2023-04-24T02:36:51;2.58;;;2.37;;
26484;SDS011;18083;50.560;7.262;2023-04-24T02:39:20;2.85;;;1.47;;
26484;SDS011;18083;50.560;7.262;2023-04-24T02:41:47;1.62;;;1.52;;
26484;SDS011;18083;50.560;7.262;2023-04-24T02:44:14;2.12;;;1.85;;
26484;SDS011;18083;50.560;7.262;2023-04-24T02:46:43;2.17;;;1.97;;
26484;SDS011;18083;50.560;7.262;2023-04-24T02:49:10;7.27;;;2.97;;
26484;SDS011;18083;50.560;7.262;2023-04-24T02:51:38;3.70;;;2.80;;
26484;SDS011;18083;50.560;7.262;2023-04-24T02:54:07;3.92;;;2.62;;
26484;SDS011;18083;50.560;7.262;2023-04-24T02:56:36;4.37;;;3.07;;
26484;SDS011;18083;50.560;7.262;2023-04-24T02:59:03;6.23;;;2.87;;
26484;SDS011;18083;50.560;7.262;2023-04-24T03:01:30;3.80;;;2.73;;
26484;SDS011;18083;50.560;7.262;2023-04-24T03:03:58;4.27;;;3.03;;
26484;SDS011;18083;50.560;7.262;2023-04-24T03:06:25;5.20;;;3.70;;
26484;SDS011;18083;50.560;7.262;2023-04-24T03:08:53;3.85;;;3.42;;
26484;SDS011;18083;50.560;7.262;2023-04-24T03:11:20;3.57;;;2.77;;
26484;SDS011;18083;50.560;7.262;2023-04-24T03:13:48;4.00;;;2.70;;
26484;SDS011;18083;50.560;7.262;2023-04-24T03:16:15;6.00;;;3.10;;
26484;SDS011;18083;50.560;7.262;2023-04-24T03:18:42;4.00;;;3.40;;
26484;SDS011;18083;50.560;7.262;2023-04-24T03:21:09;3.67;;;3.10;;
26484;SDS011;18083;50.560;7.262;2023-04-24T03:23:37;4.97;;;2.73;;
26484;SDS011;18083;50.560;7.262;2023-04-24T03:26:04;3.67;;;3.30;;
26484;SDS011;18083;50.560;7.262;2023-04-24T03:28:31;6.17;;;3.53;;
26484;SDS011;18083;50.560;7.262;2023-04-24T03:30:59;4.27;;;3.23;;
26484;SDS011;18083;50.560;7.262;2023-04-24T03:33:26;4.00;;;2.73;;
26484;SDS011;18083;50.560;7.262;2023-04-24T03:35:53;4.37;;;3.10;;
26484;SDS011;18083;50.560;7.262;2023-04-24T03:38:21;5.23;;;3.37;;
26484;SDS011;18083;50.560;7.262;2023-04-24T03:40:48;5.43;;;3.53;;
26484;SDS011;18083;50.560;7.262;2023-04-24T03:43:15;4.10;;;3.13;;
26484;SDS011;18083;50.560;7.262;2023-04-24T03:45:43;5.27;;;3.77;;
26484;SDS011;18083;50.560;7.262;2023-04-24T03:48:10;4.10;;;3.55;;
26484;SDS011;18083;50.560;7.262;2023-04-24T03:50:37;6.20;;;4.00;;
26484;SDS011;18083;50.560;7.262;2023-04-24T03:53:04;7.50;;;4.40;;
26484;SDS011;18083;50.560;7.262;2023-04-24T03:55:32;6.27;;;4.40;;
26484;SDS011;18083;50.560;7.262;2023-04-24T03:57:59;6.17;;;3.83;;
26484;SDS011;18083;50.560;7.262;2023-04-24T04:00:26;4.97;;;3.80;;
26484;SDS011;18083;50.560;7.262;2023-04-24T04:02:54;5.77;;;4.17;;
26484;SDS011;18083;50.560;7.262;2023-04-24T04:05:21;6.70;;;4.13;;
26484;SDS011;18083;50.560;7.262;2023-04-24T04:07:48;5.67;;;4.63;;
26484;SDS011;18083;50.560;7.262;2023-04-24T04:10:15;5.47;;;4.53;;
26484;SDS011;18083;50.560;7.262;2023-04-24T04:12:43;5.77;;;3.87;;
26484;SDS011;18083;50.560;7.262;2023-04-24T04:15:10;6.67;;;4.73;;
26484;SDS011;18083;50.560;7.262;2023-04-24T04:17:38;11.23;;;5.37;;
26484;SDS011;18083;50.560;7.262;2023-04-24T04:20:06;5.50;;;4.50;;
26484;SDS011;18083;50.560;7.262;2023-04-24T04:22:36;8.63;;;4.90;;
26484;SDS011;18083;50.560;7.262;2023-04-24T04:25:04;8.37;;;5.03;;
26484;SDS011;18083;50.560;7.262;2023-04-24T04:27:31;8.93;;;5.07;;
26484;SDS011;18083;50.560;7.262;2023-04-24T04:29:58;9.03;;;4.67;;
26484;SDS011;18083;50.560;7.262;2023-04-24T04:32:27;6.13;;;4.60;;
26484;SDS011;18083;50.560;7.262;2023-04-24T04:37:43;6.73;;;4.63;;
26484;SDS011;18083;50.560;7.262;2023-04-24T04:40:10;5.43;;;3.90;;
26484;SDS011;18083;50.560;7.262;2023-04-24T04:42:38;5.27;;;4.40;;
26484;SDS011;18083;50.560;7.262;2023-04-24T04:45:07;5.30;;;3.47;;
26484;SDS011;18083;50.560;7.262;2023-04-24T04:47:37;5.53;;;3.77;;
26484;SDS011;18083;50.560;7.262;2023-04-24T04:50:06;6.10;;;4.23;;
26484;SDS011;18083;50.560;7.262;2023-04-24T04:52:33;4.90;;;3.80;;
26484;SDS011;18083;50.560;7.262;2023-04-24T04:55:00;6.53;;;3.47;;
26484;SDS011;18083;50.560;7.262;2023-04-24T04:57:27;5.90;;;3.80;;
26484;SDS011;18083;50.560;7.262;2023-04-24T04:59:55;5.43;;;3.83;;
26484;SDS011;18083;50.560;7.262;2023-04-24T05:02:22;5.87;;;4.17;;
26484;SDS011;18083;50.560;7.262;2023-04-24T05:04:49;6.33;;;4.03;;
26484;SDS011;18083;50.560;7.262;2023-04-24T05:07:16;7.10;;;4.10;;
26484;SDS011;18083;50.560;7.262;2023-04-24T05:09:44;5.20;;;3.53;;
26484;SDS011;18083;50.560;7.262;2023-04-24T05:12:11;6.87;;;4.13;;
26484;SDS011;18083;50.560;7.262;2023-04-24T05:14:39;6.70;;;4.10;;
26484;SDS011;18083;50.560;7.262;2023-04-24T05:17:06;6.70;;;4.23;;
26484;SDS011;18083;50.560;7.262;2023-04-24T05:19:33;4.20;;;3.60;;
26484;SDS011;18083;50.560;7.262;2023-04-24T05:22:02;5.07;;;3.50;;
26484;SDS011;18083;50.560;7.262;2023-04-24T05:24:32;4.63;;;3.67;;
26484;SDS011;18083;50.560;7.262;2023-04-24T05:26:59;9.00;;;4.20;;
26484;SDS011;18083;50.560;7.262;2023-04-24T05:29:26;4.80;;;3.67;;
26484;SDS011;18083;50.560;7.262;2023-04-24T05:31:54;5.40;;;3.70;;
26484;SDS011;18083;50.560;7.262;2023-04-24T05:34:21;9.77;;;4.77;;
26484;SDS011;18083;50.560;7.262;2023-04-24T05:36:48;4.20;;;3.80;;
26484;SDS011;18083;50.560;7.262;2023-04-24T05:39:16;9.50;;;4.50;;
26484;SDS011;18083;50.560;7.262;2023-04-24T05:41:44;4.43;;;3.93;;
26484;SDS011;18083;50.560;7.262;2023-04-24T05:44:11;6.63;;;4.37;;
26484;SDS011;18083;50.560;7.262;2023-04-24T05:46:38;4.37;;;3.47;;
26484;SDS011;18083;50.560;7.262;2023-04-24T05:49:05;10.00;;;4.77;;
26484;SDS011;18083;50.560;7.262;2023-04-24T05:51:33;7.10;;;4.10;;
26484;SDS011;18083;50.560;7.262;2023-04-24T05:54:00;5.70;;;3.70;;
26484;SDS011;18083;50.560;7.262;2023-04-24T05:56:29;5.70;;;4.53;;
26484;SDS011;18083;50.560;7.262;2023-04-24T05:58:56;4.93;;;4.17;;
26484;SDS011;18083;50.560;7.262;2023-04-24T06:01:24;5.67;;;4.70;;
26484;SDS011;18083;50.560;7.262;2023-04-24T06:03:51;7.37;;;4.80;;
26484;SDS011;18083;50.560;7.262;2023-04-24T06:06:19;8.17;;;4.87;;
26484;SDS011;18083;50.560;7.262;2023-04-24T06:08:47;7.10;;;5.20;;
26484;SDS011;18083;50.560;7.262;2023-04-24T06:11:14;6.13;;;4.50;;
26484;SDS011;18083;50.560;7.262;2023-04-24T06:13:42;9.07;;;4.20;;
26484;SDS011;18083;50.560;7.262;2023-04-24T06:16:09;6.70;;;5.50;;
26484;SDS011;18083;50.560;7.262;2023-04-24T06:18:36;7.40;;;4.57;;
26484;SDS011;18083;50.560;7.262;2023-04-24T06:21:04;7.13;;;5.13;;
26484;SDS011;18083;50.560;7.262;2023-04-24T06:23:31;7.87;;;5.77;;
26484;SDS011;18083;50.560;7.262;2023-04-24T06:25:59;6.35;;;5.53;;
26484;SDS011;18083;50.560;7.262;2023-04-24T06:28:26;7.87;;;4.87;;
26484;SDS011;18083;50.560;7.262;2023-04-24T06:30:53;8.27;;;5.00;;
26484;SDS011;18083;50.560;7.262;2023-04-24T06:33:21;6.73;;;5.30;;
26484;SDS011;18083;50.560;7.262;2023-04-24T06:35:48;8.83;;;5.00;;
26484;SDS011;18083;50.560;7.262;2023-04-24T06:38:15;6.63;;;4.73;;
26484;SDS011;18083;50.560;7.262;2023-04-24T06:40:42;7.67;;;4.80;;
26484;SDS011;18083;50.560;7.262;2023-04-24T06:43:10;7.27;;;5.00;;
26484;SDS011;18083;50.560;7.262;2023-04-24T06:45:38;8.30;;;4.83;;
26484;SDS011;18083;50.560;7.262;2023-04-24T06:48:05;8.47;;;5.27;;
26484;SDS011;18083;50.560;7.262;2023-04-24T06:50:33;8.13;;;5.60;;
26484;SDS011;18083;50.560;7.262;2023-04-24T06:53:00;6.33;;;4.53;;
26484;SDS011;18083;50.560;7.262;2023-04-24T06:55:27;11.13;;;4.93;;
26484;SDS011;18083;50.560;7.262;2023-04-24T06:57:55;9.70;;;4.17;;
26484;SDS011;18083;50.560;7.262;2023-04-24T07:00:22;6.75;;;4.70;;
26484;SDS011;18083;50.560;7.262;2023-04-24T07:02:50;7.27;;;4.40;;
26484;SDS011;18083;50.560;7.262;2023-04-24T07:05:17;9.03;;;4.37;;
26484;SDS011;18083;50.560;7.262;2023-04-24T07:07:47;5.53;;;3.90;;
26484;SDS011;18083;50.560;7.262;2023-04-24T07:10:15;7.77;;;4.50;;
26484;SDS011;18083;50.560;7.262;2023-04-24T07:12:42;6.40;;;3.70;;
26484;SDS011;18083;50.560;7.262;2023-04-24T07:15:10;4.73;;;3.50;;
26484;SDS011;18083;50.560;7.262;2023-04-24T07:17:37;4.07;;;3.43;;
26484;SDS011;18083;50.560;7.262;2023-04-24T07:20:09;4.47;;;3.20;;
26484;SDS011;18083;50.560;7.262;2023-04-24T07:22:37;6.90;;;3.17;;
26484;SDS011;18083;50.560;7.262;2023-04-24T07:25:05;3.50;;;3.20;;
26484;SDS011;18083;50.560;7.262;2023-04-24T07:27:32;4.00;;;2.62;;
26484;SDS011;18083;50.560;7.262;2023-04-24T07:30:00;3.03;;;2.50;;
26484;SDS011;18083;50.560;7.262;2023-04-24T07:32:27;3.30;;;2.50;;
26484;SDS011;18083;50.560;7.262;2023-04-24T07:34:54;3.60;;;2.37;;
26484;SDS011;18083;50.560;7.262;2023-04-24T07:37:22;2.90;;;2.22;;
26484;SDS011;18083;50.560;7.262;2023-04-24T07:39:50;3.25;;;2.52;;
26484;SDS011;18083;50.560;7.262;2023-04-24T07:42:17;3.40;;;2.15;;
26484;SDS011;18083;50.560;7.262;2023-04-24T07:44:44;2.80;;;1.77;;
26484;SDS011;18083;50.560;7.262;2023-04-24T07:47:13;3.27;;;2.40;;
26484;SDS011;18083;50.560;7.262;2023-04-24T07:49:44;2.02;;;1.82;;
26484;SDS011;18083;50.560;7.262;2023-04-24T07:52:11;2.52;;;2.17;;
26484;SDS011;18083;50.560;7.262;2023-04-24T07:54:38;2.33;;;2.00;;
26484;SDS011;18083;50.560;7.262;2023-04-24T07:57:06;9.05;;;2.35;;
26484;SDS011;18083;50.560;7.262;2023-04-24T07:59:34;2.92;;;1.70;;
26484;SDS011;18083;50.560;7.262;2023-04-24T08:02:01;1.90;;;1.67;;
26484;SDS011;18083;50.560;7.262;2023-04-24T08:04:29;2.25;;;1.82;;
26484;SDS011;18083;50.560;7.262;2023-04-24T08:06:56;2.07;;;1.70;;
26484;SDS011;18083;50.560;7.262;2023-04-24T08:09:23;2.52;;;1.72;;
26484;SDS011;18083;50.560;7.262;2023-04-24T08:11:50;2.50;;;1.60;;
26484;SDS011;18083;50.560;7.262;2023-04-24T08:14:18;5.67;;;1.87;;
26484;SDS011;18083;50.560;7.262;2023-04-24T08:16:45;2.40;;;1.50;;
26484;SDS011;18083;50.560;7.262;2023-04-24T08:19:12;5.00;;;2.02;;
26484;SDS011;18083;50.560;7.262;2023-04-24T08:21:40;2.30;;;1.47;;
26484;SDS011;18083;50.560;7.262;2023-04-24T08:24:07;2.98;;;1.30;;
26484;SDS011;18083;50.560;7.262;2023-04-24T08:26:34;1.70;;;1.60;;
26484;SDS011;18083;50.560;7.262;2023-04-24T08:29:01;3.15;;;1.80;;
26484;SDS011;18083;50.560;7.262;2023-04-24T08:31:29;2.42;;;1.70;;
26484;SDS011;18083;50.560;7.262;2023-04-24T08:33:56;2.35;;;2.00;;
26484;SDS011;18083;50.560;7.262;2023-04-24T08:36:24;1.95;;;1.50;;
26484;SDS011;18083;50.560;7.262;2023-04-24T08:38:52;1.70;;;1.57;;
26484;SDS011;18083;50.560;7.262;2023-04-24T08:41:19;1.80;;;1.17;;
26484;SDS011;18083;50.560;7.262;2023-04-24T08:43:47;1.27;;;0.85;;
26484;SDS011;18083;50.560;7.262;2023-04-24T08:46:15;0.95;;;0.85;;
26484;SDS011;18083;50.560;7.262;2023-04-24T08:48:42;3.27;;;1.07;;
26484;SDS011;18083;50.560;7.262;2023-04-24T08:51:10;1.92;;;0.72;;
26484;SDS011;18083;50.560;7.262;2023-04-24T08:53:37;0.80;;;0.80;;
26484;SDS011;18083;50.560;7.262;2023-04-24T08:56:05;1.23;;;0.60;;
26484;SDS011;18083;50.560;7.262;2023-04-24T08:58:33;3.30;;;0.80;;
26484;SDS011;18083;50.560;7.262;2023-04-24T09:01:00;0.40;;;0.40;;
26484;SDS011;18083;50.560;7.262;2023-04-24T09:03:28;3.57;;;1.50;;
26484;SDS011;18083;50.560;7.262;2023-04-24T09:05:56;3.87;;;1.10;;
26484;SDS011;18083;50.560;7.262;2023-04-24T09:08:25;0.43;;;0.40;;
26484;SDS011;18083;50.560;7.262;2023-04-24T09:10:52;0.80;;;0.50;;
26484;SDS011;18083;50.560;7.262;2023-04-24T09:13:20;0.50;;;0.50;;
26484;SDS011;18083;50.560;7.262;2023-04-24T09:15:47;0.57;;;0.50;;
26484;SDS011;18083;50.560;7.262;2023-04-24T09:18:14;0.67;;;0.50;;
26484;SDS011;18083;50.560;7.262;2023-04-24T09:23:27;0.60;;;0.40;;
26484;SDS011;18083;50.560;7.262;2023-04-24T09:25:56;0.60;;;0.60;;
26484;SDS011;18083;50.560;7.262;2023-04-24T09:28:29;1.03;;;1.00;;
26484;SDS011;18083;50.560;7.262;2023-04-24T09:31:12;0.80;;;0.67;;
26484;SDS011;18083;50.560;7.262;2023-04-24T09:33:39;1.33;;;0.90;;
26484;SDS011;18083;50.560;7.262;2023-04-24T09:36:06;1.80;;;1.02;;
26484;SDS011;18083;50.560;7.262;2023-04-24T09:38:38;0.57;;;0.50;;
26484;SDS011;18083;50.560;7.262;2023-04-24T09:41:04;1.33;;;1.07;;
26484;SDS011;18083;50.560;7.262;2023-04-24T09:43:31;1.00;;;0.80;;
26484;SDS011;18083;50.560;7.262;2023-04-24T09:46:00;3.60;;;1.75;;
26484;SDS011;18083;50.560;7.262;2023-04-24T09:48:31;1.00;;;0.93;;
26484;SDS011;18083;50.560;7.262;2023-04-24T09:50:59;3.07;;;1.10;;
26484;SDS011;18083;50.560;7.262;2023-04-24T09:53:27;3.37;;;1.60;;
26484;SDS011;18083;50.560;7.262;2023-04-24T09:55:55;0.90;;;0.60;;
26484;SDS011;18083;50.560;7.262;2023-04-24T09:58:25;0.68;;;0.65;;
26484;SDS011;18083;50.560;7.262;2023-04-24T10:00:56;1.30;;;1.00;;
26484;SDS011;18083;50.560;7.262;2023-04-24T10:03:26;1.55;;;0.90;;
26484;SDS011;18083;50.560;7.262;2023-04-24T10:05:53;1.67;;;0.97;;
26484;SDS011;18083;50.560;7.262;2023-04-24T10:08:21;2.30;;;1.05;;
26484;SDS011;18083;50.560;7.262;2023-04-24T10:10:48;1.60;;;1.23;;
26484;SDS011;18083;50.560;7.262;2023-04-24T10:13:16;1.50;;;0.98;;
26484;SDS011;18083;50.560;7.262;2023-04-24T10:15:43;2.90;;;0.95;;
26484;SDS011;18083;50.560;7.262;2023-04-24T10:18:11;1.25;;;0.90;;
26484;SDS011;18083;50.560;7.262;2023-04-24T10:20:39;0.60;;;0.60;;
26484;SDS011;18083;50.560;7.262;2023-04-24T10:23:06;1.72;;;1.20;;
26484;SDS011;18083;50.560;7.262;2023-04-24T10:25:34;0.87;;;0.87;;
26484;SDS011;18083;50.560;7.262;2023-04-24T10:28:03;1.12;;;1.02;;
26484;SDS011;18083;50.560;7.262;2023-04-24T10:30:31;1.60;;;1.40;;
26484;SDS011;18083;50.560;7.262;2023-04-24T10:33:06;2.05;;;1.12;;
26484;SDS011;18083;50.560;7.262;2023-04-24T10:35:36;1.60;;;1.40;;
26484;SDS011;18083;50.560;7.262;2023-04-24T10:38:02;1.23;;;1.13;;
26484;SDS011;18083;50.560;7.262;2023-04-24T10:40:31;1.20;;;1.10;;
26484;SDS011;18083;50.560;7.262;2023-04-24T10:43:01;1.20;;;1.10;;
26484;SDS011;18083;50.560;7.262;2023-04-24T10:45:28;2.05;;;1.35;;
26484;SDS011;18083;50.560;7.262;2023-04-24T10:47:59;2.70;;;1.57;;
26484;SDS011;18083;50.560;7.262;2023-04-24T10:50:28;4.97;;;1.80;;
26484;SDS011;18083;50.560;7.262;2023-04-24T10:53:05;1.90;;;1.70;;
26484;SDS011;18083;50.560;7.262;2023-04-24T10:55:44;5.00;;;2.23;;
26484;SDS011;18083;50.560;7.262;2023-04-24T10:58:12;4.07;;;2.47;;
26484;SDS011;18083;50.560;7.262;2023-04-24T11:00:39;5.00;;;2.97;;
26484;SDS011;18083;50.560;7.262;2023-04-24T11:03:08;3.67;;;2.50;;
26484;SDS011;18083;50.560;7.262;2023-04-24T11:08:28;3.50;;;2.43;;
26484;SDS011;18083;50.560;7.262;2023-04-24T11:11:08;4.30;;;3.47;;
26484;SDS011;18083;50.560;7.262;2023-04-24T11:14:07;4.43;;;3.63;;
26484;SDS011;18083;50.560;7.262;2023-04-24T11:16:20;6.10;;;3.97;;
26484;SDS011;18083;50.560;7.262;2023-04-24T11:18:51;7.17;;;3.53;;
26484;SDS011;18083;50.560;7.262;2023-04-24T11:21:20;7.83;;;3.80;;
26484;SDS011;18083;50.560;7.262;2023-04-24T11:23:49;7.37;;;3.45;;
26484;SDS011;18083;50.560;7.262;2023-04-24T11:26:17;4.15;;;3.08;;
26484;SDS011;18083;50.560;7.262;2023-04-24T11:28:48;5.90;;;3.33;;
26484;SDS011;18083;50.560;7.262;2023-04-24T11:31:34;4.22;;;2.58;;
26484;SDS011;18083;50.560;7.262;2023-04-24T11:34:21;4.58;;;3.20;;
26484;SDS011;18083;50.560;7.262;2023-04-24T11:36:34;4.60;;;3.20;;
26484;SDS011;18083;50.560;7.262;2023-04-24T11:39:02;3.30;;;3.00;;
26484;SDS011;18083;50.560;7.262;2023-04-24T11:41:29;5.53;;;3.40;;
26484;SDS011;18083;50.560;7.262;2023-04-24T11:43:57;3.00;;;2.70;;
26484;SDS011;18083;50.560;7.262;2023-04-24T11:46:29;2.90;;;2.40;;
26484;SDS011;18083;50.560;7.262;2023-04-24T11:48:53;4.17;;;2.67;;
26484;SDS011;18083;50.560;7.262;2023-04-24T11:51:21;3.77;;;2.75;;
26484;SDS011;18083;50.560;7.262;2023-04-24T11:53:49;3.47;;;3.17;;
26484;SDS011;18083;50.560;7.262;2023-04-24T11:56:17;4.65;;;3.22;;
26484;SDS011;18083;50.560;7.262;2023-04-24T11:58:47;3.75;;;2.15;;
26484;SDS011;18083;50.560;7.262;2023-04-24T12:01:14;4.63;;;2.47;;
26484;SDS011;18083;50.560;7.262;2023-04-24T12:03:41;4.35;;;2.40;;
26484;SDS011;18083;50.560;7.262;2023-04-24T12:06:10;2.52;;;2.33;;
26484;SDS011;18083;50.560;7.262;2023-04-24T12:08:38;3.52;;;2.47;;
26484;SDS011;18083;50.560;7.262;2023-04-24T12:11:05;4.20;;;2.50;;
26484;SDS011;18083;50.560;7.262;2023-04-24T12:13:36;3.45;;;2.62;;
26484;SDS011;18083;50.560;7.262;2023-04-24T12:16:03;2.83;;;2.40;;
26484;SDS011;18083;50.560;7.262;2023-04-24T12:18:31;3.00;;;2.70;;
26484;SDS011;18083;50.560;7.262;2023-04-24T12:21:19;3.17;;;2.40;;
26484;SDS011;18083;50.560;7.262;2023-04-24T12:23:43;3.42;;;2.30;;
26484;SDS011;18083;50.560;7.262;2023-04-24T12:26:12;5.05;;;2.67;;
26484;SDS011;18083;50.560;7.262;2023-04-24T12:28:40;4.35;;;3.25;;
26484;SDS011;18083;50.560;7.262;2023-04-24T12:31:08;7.55;;;3.35;;
26484;SDS011;18083;50.560;7.262;2023-04-24T12:33:35;4.95;;;3.22;;
26484;SDS011;18083;50.560;7.262;2023-04-24T12:36:02;7.30;;;3.90;;
26484;SDS011;18083;50.560;7.262;2023-04-24T12:38:31;4.95;;;4.50;;
26484;SDS011;18083;50.560;7.262;2023-04-24T12:41:10;7.72;;;4.80;;
26484;SDS011;18083;50.560;7.262;2023-04-24T12:43:38;6.85;;;3.90;;
26484;SDS011;18083;50.560;7.262;2023-04-24T12:46:05;10.35;;;5.42;;
26484;SDS011;18083;50.560;7.262;2023-04-24T12:48:33;5.60;;;4.60;;
26484;SDS011;18083;50.560;7.262;2023-04-24T12:51:00;7.90;;;4.28;;
26484;SDS011;18083;50.560;7.262;2023-04-24T12:53:28;6.67;;;3.72;;
26484;SDS011;18083;50.560;7.262;2023-04-24T12:55:56;11.10;;;4.33;;
26484;SDS011;18083;50.560;7.262;2023-04-24T12:58:23;9.98;;;4.15;;
26484;SDS011;18083;50.560;7.262;2023-04-24T13:00:51;6.72;;;4.72;;
26484;SDS011;18083;50.560;7.262;2023-04-24T13:03:18;8.70;;;4.40;;
26484;SDS011;18083;50.560;7.262;2023-04-24T13:05:46;5.67;;;3.87;;
26484;SDS011;18083;50.560;7.262;2023-04-24T13:08:13;8.08;;;4.00;;
26484;SDS011;18083;50.560;7.262;2023-04-24T13:10:40;8.13;;;4.60;;
26484;SDS011;18083;50.560;7.262;2023-04-24T13:13:08;9.50;;;4.65;;
26484;SDS011;18083;50.560;7.262;2023-04-24T13:15:35;9.65;;;4.90;;
26484;SDS011;18083;50.560;7.262;2023-04-24T13:18:02;7.55;;;3.67;;
26484;SDS011;18083;50.560;7.262;2023-04-24T13:20:30;9.28;;;3.70;;
26484;SDS011;18083;50.560;7.262;2023-04-24T13:22:57;6.47;;;4.00;;
26484;SDS011;18083;50.560;7.262;2023-04-24T13:25:24;4.78;;;4.37;;
26484;SDS011;18083;50.560;7.262;2023-04-24T13:27:52;5.22;;;4.20;;
26484;SDS011;18083;50.560;7.262;2023-04-24T13:30:20;7.95;;;3.72;;
26484;SDS011;18083;50.560;7.262;2023-04-24T13:32:47;8.18;;;3.47;;
26484;SDS011;18083;50.560;7.262;2023-04-24T13:35:14;5.40;;;4.22;;
26484;SDS011;18083;50.560;7.262;2023-04-24T13:37:41;7.58;;;4.22;;
26484;SDS011;18083;50.560;7.262;2023-04-24T13:40:09;7.37;;;4.17;;
26484;SDS011;18083;50.560;7.262;2023-04-24T13:42:36;5.55;;;3.58;;
26484;SDS011;18083;50.560;7.262;2023-04-24T13:45:04;5.00;;;3.62;;
26484;SDS011;18083;50.560;7.262;2023-04-24T13:47:31;5.17;;;3.30;;
26484;SDS011;18083;50.560;7.262;2023-04-24T13:49:58;6.70;;;4.28;;
26484;SDS011;18083;50.560;7.262;2023-04-24T13:52:26;6.08;;;3.90;;
26484;SDS011;18083;50.560;7.262;2023-04-24T13:54:53;5.17;;;3.60;;
26484;SDS011;18083;50.560;7.262;2023-04-24T13:57:21;10.00;;;4.47;;
26484;SDS011;18083;50.560;7.262;2023-04-24T13:59:49;5.45;;;4.15;;
26484;SDS011;18083;50.560;7.262;2023-04-24T14:02:16;8.63;;;4.60;;
26484;SDS011;18083;50.560;7.262;2023-04-24T14:04:43;5.50;;;3.92;;
26484;SDS011;18083;50.560;7.262;2023-04-24T14:07:10;6.30;;;4.58;;
26484;SDS011;18083;50.560;7.262;2023-04-24T14:09:38;6.83;;;4.87;;
26484;SDS011;18083;50.560;7.262;2023-04-24T14:12:05;11.08;;;4.72;;
26484;SDS011;18083;50.560;7.262;2023-04-24T14:14:33;10.15;;;5.78;;
26484;SDS011;18083;50.560;7.262;2023-04-24T14:17:00;6.20;;;4.50;;
26484;SDS011;18083;50.560;7.262;2023-04-24T14:19:28;6.83;;;4.45;;
26484;SDS011;18083;50.560;7.262;2023-04-24T14:21:55;13.60;;;5.40;;
26484;SDS011;18083;50.560;7.262;2023-04-24T14:24:24;5.25;;;4.17;;
26484;SDS011;18083;50.560;7.262;2023-04-24T14:26:51;8.55;;;4.30;;
26484;SDS011;18083;50.560;7.262;2023-04-24T14:29:19;5.35;;;4.40;;
26484;SDS011;18083;50.560;7.262;2023-04-24T14:31:46;4.92;;;3.58;;
26484;SDS011;18083;50.560;7.262;2023-04-24T14:34:13;5.33;;;4.40;;
26484;SDS011;18083;50.560;7.262;2023-04-24T14:36:41;6.10;;;4.55;;
26484;SDS011;18083;50.560;7.262;2023-04-24T14:39:09;4.90;;;4.17;;
26484;SDS011;18083;50.560;7.262;2023-04-24T14:41:37;8.70;;;4.15;;
26484;SDS011;18083;50.560;7.262;2023-04-24T14:44:05;6.90;;;3.90;;
26484;SDS011;18083;50.560;7.262;2023-04-24T14:46:32;5.20;;;3.72;;
26484;SDS011;18083;50.560;7.262;2023-04-24T14:49:00;4.30;;;3.72;;
26484;SDS011;18083;50.560;7.262;2023-04-24T14:51:27;4.90;;;3.55;;
26484;SDS011;18083;50.560;7.262;2023-04-24T14:53:55;3.85;;;3.35;;
26484;SDS011;18083;50.560;7.262;2023-04-24T14:56:23;5.67;;;3.70;;
26484;SDS011;18083;50.560;7.262;2023-04-24T14:58:50;5.97;;;3.55;;
26484;SDS011;18083;50.560;7.262;2023-04-24T15:01:17;5.65;;;4.00;;
26484;SDS011;18083;50.560;7.262;2023-04-24T15:03:45;8.38;;;4.75;;